createdAt,value
2019-03-05T00:00:41.975Z,1.80
2019-03-05T00:03:11.015Z,2.00
2019-03-05T00:05:40.423Z,1.53
2019-03-05T00:08:10.193Z,2.03
2019-03-05T00:10:39.786Z,1.63
2019-03-05T00:13:09.166Z,1.87
2019-03-05T00:15:38.171Z,1.67
2019-03-05T00:18:07.234Z,1.80
2019-03-05T00:20:36.724Z,1.37
2019-03-05T00:23:08.243Z,1.50
2019-03-05T00:25:36.990Z,1.67
2019-03-05T00:28:16.607Z,1.80
2019-03-05T00:30:49.271Z,2.23
2019-03-05T00:34:01.546Z,1.80
2019-03-05T00:37:00.857Z,1.90
2019-03-05T00:40:00.990Z,1.77
2019-03-05T00:43:04.705Z,1.60
2019-03-05T00:45:59.903Z,1.67
2019-03-05T00:48:51.359Z,2.13
2019-03-05T00:51:33.216Z,1.60
2019-03-05T00:54:50.971Z,1.73
2019-03-05T00:57:48.291Z,1.80
2019-03-05T01:00:40.093Z,2.00
2019-03-05T01:03:50.339Z,1.70
2019-03-05T01:06:21.563Z,1.60
2019-03-05T01:08:50.945Z,2.30
2019-03-05T01:11:20.986Z,1.83
2019-03-05T01:13:50.140Z,2.00
2019-03-05T01:16:22.582Z,2.50
2019-03-05T01:18:51.577Z,1.90
2019-03-05T01:21:20.608Z,2.00
2019-03-05T01:23:50.019Z,2.00
2019-03-05T01:26:19.046Z,1.80
2019-03-05T01:28:48.036Z,1.70
2019-03-05T01:31:36.152Z,2.00
2019-03-05T01:34:17.341Z,1.80
2019-03-05T01:36:50.140Z,1.57
2019-03-05T01:39:43.097Z,1.63
2019-03-05T01:42:12.412Z,1.47
2019-03-05T01:44:41.416Z,1.60
2019-03-05T01:47:10.475Z,1.40
2019-03-05T01:49:39.508Z,1.50
2019-03-05T01:52:08.626Z,1.10
2019-03-05T01:54:37.983Z,1.40
2019-03-05T01:57:07.039Z,1.50
2019-03-05T01:59:36.119Z,1.57
2019-03-05T02:02:05.565Z,1.80
2019-03-05T02:04:34.605Z,1.47
2019-03-05T02:07:03.757Z,1.90
2019-03-05T02:09:32.953Z,2.87
2019-03-05T02:12:02.693Z,2.50
2019-03-05T02:14:32.004Z,2.00
2019-03-05T02:17:01.004Z,2.10
2019-03-05T02:19:42.614Z,1.50
2019-03-05T02:22:27.736Z,1.70
2019-03-05T02:25:29.271Z,1.20
2019-03-05T02:28:24.933Z,1.00
2019-03-05T02:31:08.860Z,1.13
2019-03-05T02:33:59.575Z,1.13
2019-03-05T02:36:57.604Z,1.00
2019-03-05T02:39:57.998Z,1.30
2019-03-05T02:43:20.299Z,1.13
2019-03-05T02:46:24.079Z,1.10
2019-03-05T02:49:45.758Z,1.37
2019-03-05T02:52:23.189Z,1.10
2019-03-05T02:55:25.554Z,1.27
2019-03-05T02:57:53.091Z,1.40
2019-03-05T03:00:34.213Z,1.27
2019-03-05T03:03:10.039Z,1.60
2019-03-05T03:05:54.321Z,1.40
2019-03-05T03:08:23.369Z,1.37
2019-03-05T03:10:52.698Z,1.50
2019-03-05T03:13:22.074Z,1.57
2019-03-05T03:15:51.121Z,1.60
2019-03-05T03:18:20.132Z,1.50
2019-03-05T03:20:49.314Z,1.50
2019-03-05T03:23:18.373Z,1.63
2019-03-05T03:25:47.378Z,1.30
2019-03-05T03:28:16.408Z,1.80
2019-03-05T03:30:45.423Z,1.00
2019-03-05T03:33:14.939Z,1.50
2019-03-05T03:35:44.347Z,1.40
2019-03-05T03:38:13.708Z,1.60
2019-03-05T03:40:42.809Z,1.70
2019-03-05T03:43:12.280Z,1.70
2019-03-05T03:45:41.601Z,1.60
2019-03-05T03:48:10.972Z,2.13
2019-03-05T03:50:40.101Z,1.50
2019-03-05T03:53:09.150Z,1.90
2019-03-05T03:55:38.274Z,1.70
2019-03-05T03:58:07.365Z,1.37
2019-03-05T04:00:36.388Z,1.40
2019-03-05T04:03:05.821Z,1.27
2019-03-05T04:05:34.823Z,1.53
2019-03-05T04:08:03.969Z,1.50
2019-03-05T04:10:33.447Z,1.27
2019-03-05T04:13:02.509Z,1.20
2019-03-05T04:15:31.531Z,1.53
2019-03-05T04:18:00.930Z,1.30
2019-03-05T04:20:33.601Z,0.97
2019-03-05T04:23:03.088Z,0.90
2019-03-05T04:25:32.535Z,0.90
2019-03-05T04:28:01.592Z,1.00
2019-03-05T04:30:30.614Z,0.60
2019-03-05T04:32:59.676Z,0.70
2019-03-05T04:35:28.698Z,0.83
2019-03-05T04:37:58.037Z,0.70
2019-03-05T04:40:27.413Z,0.50
2019-03-05T04:42:56.565Z,0.50
2019-03-05T04:45:35.990Z,0.50
2019-03-05T04:48:05.124Z,0.63
2019-03-05T04:51:08.241Z,0.60
2019-03-05T04:53:37.632Z,0.60
2019-03-05T04:56:06.685Z,0.73
2019-03-05T04:58:35.757Z,0.93
2019-03-05T05:01:05.017Z,1.00
2019-03-05T05:03:34.032Z,0.80
2019-03-05T05:06:03.080Z,0.90
2019-03-05T05:08:32.174Z,0.87
2019-03-05T05:11:01.542Z,0.90
2019-03-05T05:13:30.926Z,1.40
2019-03-05T05:16:00.218Z,1.00
2019-03-05T05:18:29.678Z,1.10
2019-03-05T05:20:58.715Z,0.93
2019-03-05T05:23:28.090Z,1.07
2019-03-05T05:25:57.116Z,1.30
2019-03-05T05:28:26.370Z,1.40
2019-03-05T05:30:55.427Z,1.20
2019-03-05T05:33:24.522Z,1.40
2019-03-05T05:35:53.562Z,1.40
2019-03-05T05:38:22.652Z,1.40
2019-03-05T05:40:51.710Z,1.60
2019-03-05T05:43:24.074Z,1.53
2019-03-05T05:45:53.338Z,1.53
2019-03-05T05:48:22.363Z,1.43
2019-03-05T05:50:51.417Z,1.40
2019-03-05T05:53:20.447Z,1.30
2019-03-05T05:55:49.916Z,1.00
2019-03-05T05:58:18.990Z,1.17
2019-03-05T06:00:51.002Z,1.17
2019-03-05T06:03:20.259Z,1.10
2019-03-05T06:05:49.761Z,1.20
2019-03-05T06:08:19.262Z,0.87
2019-03-05T06:10:48.996Z,1.00
2019-03-05T06:13:18.330Z,0.80
2019-03-05T06:15:47.452Z,0.90
2019-03-05T06:18:16.869Z,0.80
2019-03-05T06:20:46.028Z,1.10
2019-03-05T06:23:15.194Z,0.90
2019-03-05T06:25:44.841Z,1.20
2019-03-05T06:28:14.652Z,1.33
2019-03-05T06:30:43.798Z,1.60
2019-03-05T06:33:13.370Z,1.33
2019-03-05T06:35:42.452Z,1.33
2019-03-05T06:38:12.465Z,1.20
2019-03-05T06:40:41.474Z,0.90
2019-03-05T06:43:10.878Z,1.00
2019-03-05T06:45:40.286Z,1.50
2019-03-05T06:48:09.330Z,1.00
2019-03-05T06:50:38.452Z,1.10
2019-03-05T06:53:07.506Z,1.17
2019-03-05T06:55:36.971Z,1.27
2019-03-05T06:58:06.767Z,0.97
2019-03-05T07:00:37.522Z,1.00
2019-03-05T07:03:07.277Z,1.30
2019-03-05T07:06:11.693Z,1.00
2019-03-05T07:08:43.962Z,0.93
2019-03-05T07:11:26.947Z,1.00
2019-03-05T07:13:56.295Z,1.27
2019-03-05T07:16:57.544Z,1.30
2019-03-05T07:19:42.815Z,1.60
2019-03-05T07:22:25.179Z,2.30
2019-03-05T07:24:54.283Z,1.37
2019-03-05T07:27:34.945Z,1.50
2019-03-05T07:30:23.901Z,1.77
2019-03-05T07:32:53.875Z,1.60
2019-03-05T07:35:25.559Z,1.73
2019-03-05T07:37:54.914Z,1.50
2019-03-05T07:40:24.273Z,1.10
2019-03-05T07:42:53.736Z,1.50
2019-03-05T07:45:23.094Z,1.40
2019-03-05T07:47:52.177Z,1.80
2019-03-05T07:50:21.267Z,1.17
2019-03-05T07:52:50.616Z,2.20
2019-03-05T07:55:19.641Z,1.50
2019-03-05T07:57:48.693Z,2.20
2019-03-05T08:00:21.863Z,1.67
2019-03-05T08:02:51.425Z,1.40
2019-03-05T08:05:20.610Z,1.80
2019-03-05T08:07:49.798Z,1.90
2019-03-05T08:10:32.777Z,1.40
2019-03-05T08:13:19.191Z,1.70
2019-03-05T08:16:18.700Z,1.63
2019-03-05T08:18:47.727Z,1.40
2019-03-05T08:21:16.910Z,1.37
2019-03-05T08:23:48.325Z,1.30
2019-03-05T08:26:16.850Z,1.30
2019-03-05T08:28:45.910Z,1.87
2019-03-05T08:31:14.970Z,1.20
2019-03-05T08:33:44.047Z,1.40
2019-03-05T08:36:13.106Z,1.43
2019-03-05T08:38:42.301Z,1.50
2019-03-05T08:41:11.688Z,1.30
2019-03-05T08:43:41.090Z,2.13
2019-03-05T08:46:10.184Z,1.77
2019-03-05T08:48:39.284Z,1.70
2019-03-05T08:51:08.527Z,1.80
2019-03-05T08:53:49.019Z,1.37
2019-03-05T08:56:08.677Z,1.97
2019-03-05T08:58:38.116Z,1.30
2019-03-05T09:01:07.804Z,1.77
2019-03-05T09:03:37.248Z,1.00
2019-03-05T09:06:06.321Z,2.83
2019-03-05T09:08:35.367Z,3.27
2019-03-05T09:11:05.715Z,2.47
2019-03-05T09:13:34.989Z,1.20
2019-03-05T09:16:04.228Z,1.17
2019-03-05T09:18:33.657Z,0.90
2019-03-05T09:21:03.163Z,1.13
2019-03-05T09:23:32.200Z,1.33
2019-03-05T09:26:01.604Z,1.30
2019-03-05T09:28:31.299Z,1.20
2019-03-05T09:31:00.368Z,1.27
2019-03-05T09:33:29.787Z,1.03
2019-03-05T09:35:58.837Z,1.60
2019-03-05T09:38:28.257Z,1.20
2019-03-05T09:40:57.901Z,1.35
2019-03-05T09:43:26.958Z,1.37
2019-03-05T09:45:56.463Z,1.15
2019-03-05T09:48:25.536Z,1.10
2019-03-05T09:50:54.626Z,1.33
2019-03-05T09:53:23.709Z,1.30
2019-03-05T09:55:52.766Z,1.23
2019-03-05T09:58:21.848Z,1.23
2019-03-05T10:00:50.923Z,1.30
2019-03-05T10:03:20.138Z,1.40
2019-03-05T10:05:49.497Z,1.50
2019-03-05T10:08:19.055Z,1.47
2019-03-05T10:10:48.138Z,1.83
2019-03-05T10:13:17.366Z,2.13
2019-03-05T10:15:46.816Z,2.07
2019-03-05T10:18:15.975Z,1.73
2019-03-05T10:20:45.303Z,1.63
2019-03-05T10:23:14.964Z,2.00
2019-03-05T10:25:44.025Z,2.20
2019-03-05T10:28:13.153Z,2.00
2019-03-05T10:30:43.839Z,1.57
2019-03-05T10:33:16.054Z,1.50
2019-03-05T10:35:45.338Z,2.40
2019-03-05T10:38:14.475Z,2.57
2019-03-05T10:40:44.379Z,2.03
2019-03-05T10:43:14.257Z,1.73
2019-03-05T10:45:45.215Z,2.30
2019-03-05T10:48:15.833Z,1.93
2019-03-05T10:50:45.263Z,2.10
2019-03-05T10:53:14.640Z,2.40
2019-03-05T10:55:43.825Z,2.30
2019-03-05T10:58:14.206Z,1.63
2019-03-05T11:00:44.449Z,1.57
2019-03-05T11:03:14.021Z,2.37
2019-03-05T11:05:43.253Z,1.70
2019-03-05T11:08:17.199Z,1.70
2019-03-05T11:10:46.540Z,1.90
2019-03-05T11:13:15.589Z,1.80
2019-03-05T11:15:46.118Z,1.87
2019-03-05T11:18:15.489Z,1.97
2019-03-05T11:20:44.582Z,1.47
2019-03-05T11:23:13.784Z,1.80
2019-03-05T11:25:43.432Z,1.70
2019-03-05T11:28:12.463Z,1.67
2019-03-05T11:30:41.892Z,1.57
2019-03-05T11:33:10.940Z,1.53
2019-03-05T11:35:40.355Z,1.90
2019-03-05T11:38:09.372Z,1.52
2019-03-05T11:40:38.575Z,2.10
2019-03-05T11:43:10.259Z,1.60
2019-03-05T11:45:40.106Z,2.08
2019-03-05T11:48:09.234Z,1.37
2019-03-05T11:50:38.369Z,1.85
2019-03-05T11:53:08.365Z,1.90
2019-03-05T11:55:37.416Z,1.90
2019-03-05T11:58:06.414Z,1.50
2019-03-05T12:00:41.329Z,1.73
2019-03-05T12:03:10.669Z,1.93
2019-03-05T12:05:40.027Z,1.60
2019-03-05T12:08:09.417Z,1.23
2019-03-05T12:10:38.780Z,1.37
2019-03-05T12:13:07.800Z,1.80
2019-03-05T12:15:37.143Z,1.77
2019-03-05T12:18:06.199Z,1.43
2019-03-05T12:20:35.292Z,1.50
2019-03-05T12:23:06.640Z,1.30
2019-03-05T12:25:36.128Z,1.40
2019-03-05T12:28:10.301Z,1.47
2019-03-05T12:30:37.819Z,1.57
2019-03-05T12:33:07.122Z,1.50
2019-03-05T12:35:36.457Z,1.10
2019-03-05T12:38:06.208Z,1.33
2019-03-05T12:40:35.732Z,1.10
2019-03-05T12:43:05.041Z,1.37
2019-03-05T12:45:35.390Z,1.40
2019-03-05T12:48:05.646Z,1.40
2019-03-05T12:50:35.223Z,1.40
2019-03-05T12:53:04.619Z,1.37
2019-03-05T12:55:33.725Z,1.60
2019-03-05T12:58:03.126Z,1.72
2019-03-05T13:00:32.429Z,1.50
2019-03-05T13:03:01.581Z,1.47
2019-03-05T13:05:30.945Z,1.53
2019-03-05T13:08:00.199Z,1.37
2019-03-05T13:10:35.246Z,1.40
2019-03-05T13:13:00.539Z,1.40
2019-03-05T13:15:30.619Z,1.30
2019-03-05T13:17:59.771Z,1.63
2019-03-05T13:20:28.943Z,1.60
2019-03-05T13:22:58.199Z,1.60
2019-03-05T13:25:28.711Z,1.70
2019-03-05T13:28:02.255Z,1.50
2019-03-05T13:30:29.271Z,1.73
2019-03-05T13:32:59.027Z,2.00
2019-03-05T13:35:30.316Z,1.27
2019-03-05T13:38:03.250Z,1.80
2019-03-05T13:40:34.136Z,1.77
2019-03-05T13:43:02.567Z,1.70
2019-03-05T13:45:31.705Z,1.63
2019-03-05T13:48:28.343Z,1.63
2019-03-05T13:51:32.813Z,3.23
2019-03-05T13:54:51.869Z,2.13
2019-03-05T13:58:01.535Z,1.50
2019-03-05T14:00:30.880Z,1.90
2019-03-05T14:03:20.738Z,2.00
2019-03-05T14:06:25.037Z,1.43
2019-03-05T14:09:21.491Z,1.73
2019-03-05T14:11:51.601Z,2.37
2019-03-05T14:14:28.185Z,1.53
2019-03-05T14:17:02.897Z,2.93
2019-03-05T14:19:31.960Z,4.33
2019-03-05T14:22:01.651Z,2.60
2019-03-05T14:24:30.655Z,1.87
2019-03-05T14:26:59.773Z,2.27
2019-03-05T14:29:29.434Z,2.27
2019-03-05T14:31:58.560Z,1.93
2019-03-05T14:34:27.645Z,2.17
2019-03-05T14:36:56.650Z,1.87
2019-03-05T14:39:29.118Z,2.03
2019-03-05T14:41:58.375Z,2.10
2019-03-05T14:44:39.103Z,2.00
2019-03-05T14:47:00.021Z,1.80
2019-03-05T14:49:29.390Z,3.23
2019-03-05T14:51:58.493Z,2.20
2019-03-05T14:54:27.660Z,1.73
2019-03-05T14:56:56.746Z,1.77
2019-03-05T14:59:25.789Z,1.70
2019-03-05T15:01:54.883Z,2.53
2019-03-05T15:04:24.364Z,1.70
2019-03-05T15:06:53.451Z,3.73
2019-03-05T15:09:22.782Z,4.03
2019-03-05T15:11:51.951Z,2.50
2019-03-05T15:14:20.957Z,2.60
2019-03-05T15:16:50.248Z,3.00
2019-03-05T15:19:21.682Z,2.20
2019-03-05T15:21:50.700Z,1.57
2019-03-05T15:24:19.854Z,1.87
2019-03-05T15:26:49.067Z,2.60
2019-03-05T15:29:19.596Z,2.60
2019-03-05T15:31:48.950Z,2.87
2019-03-05T15:34:19.385Z,2.80
2019-03-05T15:36:51.916Z,1.53
2019-03-05T15:39:19.174Z,2.23
2019-03-05T15:41:48.575Z,1.43
2019-03-05T15:44:17.896Z,2.47
2019-03-05T15:46:47.248Z,4.00
2019-03-05T15:49:16.476Z,4.43
2019-03-05T15:51:45.604Z,3.23
2019-03-05T15:54:14.645Z,3.80
2019-03-05T15:56:43.675Z,4.70
2019-03-05T15:59:13.371Z,3.63
2019-03-05T16:01:44.092Z,2.57
2019-03-05T16:04:13.123Z,1.70
2019-03-05T16:06:42.373Z,2.00
2019-03-05T16:09:19.789Z,3.60
2019-03-05T16:11:48.976Z,3.80
2019-03-05T16:14:18.313Z,3.40
2019-03-05T16:16:51.628Z,2.93
2019-03-05T16:19:18.475Z,2.07
2019-03-05T16:21:47.552Z,1.50
2019-03-05T16:24:18.178Z,1.90
2019-03-05T16:26:47.132Z,2.00
2019-03-05T16:29:20.151Z,1.70
2019-03-05T16:32:03.383Z,1.90
2019-03-05T16:34:38.186Z,1.60
2019-03-05T16:37:24.816Z,1.40
2019-03-05T16:40:19.581Z,1.57
2019-03-05T16:43:25.949Z,1.70
2019-03-05T16:46:19.580Z,1.60
2019-03-05T16:48:56.154Z,2.10
2019-03-05T16:51:33.425Z,1.67
2019-03-05T16:54:18.194Z,2.00
2019-03-05T16:57:12.550Z,1.77
2019-03-05T16:59:56.774Z,1.60
2019-03-05T17:02:45.226Z,2.00
2019-03-05T17:05:34.009Z,1.50
2019-03-05T17:08:34.387Z,1.53
2019-03-05T17:11:21.080Z,2.03
2019-03-05T17:13:50.608Z,2.67
2019-03-05T17:16:20.364Z,4.27
2019-03-05T17:18:49.816Z,3.53
2019-03-05T17:21:27.007Z,3.90
2019-03-05T17:23:49.651Z,2.63
2019-03-05T17:26:18.718Z,2.77
2019-03-05T17:28:48.149Z,2.90
2019-03-05T17:31:17.229Z,3.40
2019-03-05T17:33:46.772Z,3.73
2019-03-05T17:36:16.294Z,3.60
2019-03-05T17:38:45.456Z,5.00
2019-03-05T17:41:14.691Z,2.20
2019-03-05T17:43:43.896Z,2.17
2019-03-05T17:46:13.300Z,2.20
2019-03-05T17:48:42.918Z,2.10
2019-03-05T17:51:12.503Z,2.37
2019-03-05T17:53:41.711Z,2.60
2019-03-05T17:56:11.488Z,2.60
2019-03-05T17:58:40.662Z,2.70
2019-03-05T18:01:10.517Z,2.50
2019-03-05T18:03:39.855Z,2.37
2019-03-05T18:06:09.046Z,2.87
2019-03-05T18:08:38.323Z,2.90
2019-03-05T18:11:07.969Z,2.30
2019-03-05T18:13:38.826Z,2.20
2019-03-05T18:16:07.913Z,2.20
2019-03-05T18:18:36.953Z,2.47
2019-03-05T18:21:07.729Z,2.40
2019-03-05T18:23:36.908Z,2.30
2019-03-05T18:26:06.188Z,3.80
2019-03-05T18:28:35.322Z,3.03
2019-03-05T18:31:04.488Z,2.40
2019-03-05T18:33:33.913Z,2.30
2019-03-05T18:36:03.063Z,2.37
2019-03-05T18:38:33.032Z,2.13
2019-03-05T18:41:02.537Z,2.40
2019-03-05T18:43:31.633Z,2.30
2019-03-05T18:46:00.747Z,3.07
2019-03-05T18:48:29.838Z,2.53
2019-03-05T18:51:00.607Z,2.50
2019-03-05T18:53:30.050Z,2.50
2019-03-05T18:55:59.632Z,2.20
2019-03-05T18:58:28.659Z,2.10
2019-03-05T19:00:57.676Z,2.10
2019-03-05T19:03:26.930Z,2.27
2019-03-05T19:05:56.460Z,2.00
2019-03-05T19:08:25.740Z,1.93
2019-03-05T19:10:55.294Z,2.10
2019-03-05T19:13:24.361Z,2.20
2019-03-05T19:15:53.416Z,1.90
2019-03-05T19:18:22.638Z,2.17
2019-03-05T19:20:51.784Z,2.30
2019-03-05T19:23:20.873Z,1.93
2019-03-05T19:25:50.365Z,2.40
2019-03-05T19:28:19.430Z,2.50
2019-03-05T19:30:48.896Z,3.27
2019-03-05T19:33:18.448Z,3.43
2019-03-05T19:35:48.252Z,3.13
2019-03-05T19:38:17.574Z,2.60
2019-03-05T19:40:46.981Z,2.60
2019-03-05T19:43:16.340Z,2.10
2019-03-05T19:45:45.401Z,2.33
2019-03-05T19:48:14.525Z,3.47
2019-03-05T19:50:44.414Z,2.93
2019-03-05T19:53:13.920Z,2.40
2019-03-05T19:55:43.236Z,2.33
2019-03-05T19:58:13.177Z,2.40
2019-03-05T20:01:00.338Z,2.33
2019-03-05T20:03:29.398Z,2.47
2019-03-05T20:05:58.461Z,2.50
2019-03-05T20:08:28.192Z,2.47
2019-03-05T20:10:58.253Z,2.10
2019-03-05T20:13:27.350Z,2.57
2019-03-05T20:15:56.498Z,2.60
2019-03-05T20:18:25.567Z,2.50
2019-03-05T20:20:54.644Z,3.07
2019-03-05T20:23:26.048Z,2.73
2019-03-05T20:25:55.646Z,2.90
2019-03-05T20:28:24.722Z,3.00
2019-03-05T20:30:53.808Z,3.03
2019-03-05T20:33:22.933Z,3.03
2019-03-05T20:35:52.261Z,3.33
2019-03-05T20:38:21.882Z,3.07
2019-03-05T20:40:51.006Z,3.20
2019-03-05T20:43:20.046Z,3.97
2019-03-05T20:45:49.985Z,3.90
2019-03-05T20:48:19.465Z,4.10
2019-03-05T20:50:48.590Z,3.80
2019-03-05T20:53:18.283Z,4.53
2019-03-05T20:55:47.501Z,4.37
2019-03-05T20:58:16.648Z,4.57
2019-03-05T21:00:45.993Z,5.03
2019-03-05T21:03:15.372Z,5.37
2019-03-05T21:05:44.619Z,5.40
2019-03-05T21:08:13.797Z,6.43
2019-03-05T21:10:43.322Z,6.70
2019-03-05T21:13:12.521Z,6.90
2019-03-05T21:15:42.138Z,7.13
2019-03-05T21:18:11.231Z,7.80
2019-03-05T21:20:40.655Z,7.97
2019-03-05T21:23:10.020Z,8.03
2019-03-05T21:25:39.153Z,8.27
2019-03-05T21:28:08.341Z,8.00
2019-03-05T21:30:37.798Z,7.80
2019-03-05T21:33:06.834Z,8.17
2019-03-05T21:35:36.255Z,7.70
2019-03-05T21:38:05.574Z,7.60
2019-03-05T21:40:35.211Z,8.10
2019-03-05T21:43:04.302Z,8.77
2019-03-05T21:45:35.253Z,8.27
2019-03-05T21:48:04.796Z,7.80
2019-03-05T21:50:34.065Z,7.37
2019-03-05T21:53:03.521Z,8.67
2019-03-05T21:55:33.020Z,8.03
2019-03-05T21:58:02.570Z,8.00
2019-03-05T22:00:32.728Z,8.30
2019-03-05T22:03:02.509Z,8.20
2019-03-05T22:05:32.121Z,8.17
2019-03-05T22:08:01.739Z,8.33
2019-03-05T22:10:31.098Z,7.93
2019-03-05T22:13:00.248Z,8.17
2019-03-05T22:15:29.699Z,7.10
2019-03-05T22:17:58.953Z,7.83
2019-03-05T22:20:28.147Z,7.67
2019-03-05T22:22:57.567Z,7.93
2019-03-05T22:25:28.866Z,7.53
2019-03-05T22:27:57.918Z,7.30
2019-03-05T22:30:27.863Z,8.07
2019-03-05T22:32:56.912Z,7.10
2019-03-05T22:35:26.169Z,7.00
2019-03-05T22:37:55.334Z,7.73
2019-03-05T22:40:24.675Z,7.30
2019-03-05T22:42:54.373Z,7.17
2019-03-05T22:45:24.505Z,7.17
2019-03-05T22:47:53.739Z,6.73
2019-03-05T22:50:22.903Z,7.13
2019-03-05T22:52:52.062Z,7.13
2019-03-05T22:55:21.157Z,6.77
2019-03-05T22:57:50.358Z,6.80
2019-03-05T23:00:45.011Z,6.70
2019-03-05T23:03:14.429Z,6.30
2019-03-05T23:05:43.506Z,6.50
2019-03-05T23:08:12.578Z,6.00
2019-03-05T23:10:41.645Z,6.73
2019-03-05T23:13:10.697Z,5.13
2019-03-05T23:15:40.478Z,5.37
2019-03-05T23:18:09.883Z,5.80
2019-03-05T23:20:39.311Z,6.03
2019-03-05T23:23:08.362Z,5.17
2019-03-05T23:25:37.409Z,5.10
2019-03-05T23:28:07.615Z,4.43
2019-03-05T23:30:36.829Z,4.93
2019-03-05T23:33:06.339Z,4.77
2019-03-05T23:35:35.705Z,5.07
2019-03-05T23:38:05.272Z,4.27
2019-03-05T23:40:34.425Z,4.83
2019-03-05T23:43:03.855Z,4.47
2019-03-05T23:45:32.859Z,4.77
2019-03-05T23:48:02.011Z,4.93
2019-03-05T23:50:31.413Z,4.17
2019-03-05T23:53:00.860Z,4.37
2019-03-05T23:55:30.653Z,4.40
2019-03-05T23:57:59.767Z,4.40
